x

Columbia River Bar - 20nm West Of Columbia River Mouth (46029) Wave Buoy

12:50 - Wed 26th Jul 2017 All times are PDT. -7 hours from GMT.

  • Sig Wave height 3.6ft
  • Swell Direction
  • Peak Period 7s
  • Average Period 5s
  • Wind
    4mph, 7mph gusts
  • Sea Temp 61°f
  • Ar Temp 58°f
  • Sea Pressure 1021.7mb
  • Columbia River Bar - 20nm West Of Columbia River Mouth
  • Columbia River Bar - 20nm West Of Columbia River Mouth

More Historic Weather Station data

Upgrade to MSW Pro to gain access to the past 30 days of data for over 8000 Wavebouys and Weather Stations around the globe.

Join Pro

Comparision Forecast

View Surf forecast
   
Qua 07/26 12:50 3.5ft 7s 5s 4 7 mph 1021.7mb 61f 58f
11:50 3.5ft 7s 5s 7 9 mph 1021.4mb 60f 58f
10:50 3.5ft 7s 5s 9 11 mph 1021.4mb 60f 58f
9:50 4.5ft 7s 5s 9 11 mph 1020.9mb 60f 58f
8:50 4ft 6s 5s 11 16 mph 1020.8mb 58f 58f
7:50 4.5ft 7s 5s 9 11 mph 1020.6mb 57f 58f
6:50 4.5ft 7s 5s 11 13 mph 1020.2mb 57f 58f
5:50 5ft 7s 6s 7 9 mph 1020.1mb 56f 58f
4:50 5ft 7s 6s 9 11 mph 1019.6mb 56f 58f
3:50 5ft 7s 6s 9 11 mph 1019.4mb 57f 58f
2:50 5ft 7s 6s 13 16 mph 1019.4mb 59f 59f
1:50 5ft 7s 5s 16 22 mph 1019.3mb 59f 59f
12:50 5ft 8s 5s 16 18 mph 1019.5mb 59f 59f
Ter 07/25 11:50 5ft 7s 5s 13 16 mph 1019.4mb 59f 58f
10:50 5.5ft 8s 5s 16 18 mph 1018.9mb 60f 58f
9:50 5ft 8s 5s 20 22 mph 1018.6mb 60f 58f
8:50 5.5ft 8s 5s 18 22 mph 1018.5mb 60f 58f
7:50 5ft 8s 5s 18 22 mph 1018.3mb 60f 59f
6:50 6ft 8s 5s 20 25 mph 1018.4mb 60f 59f
5:50 6ft 8s 6s 20 22 mph 1018.5mb 60f 60f
4:50 6ft 8s 6s 16 18 mph 1018.6mb 60f 60f
3:50 5.5ft 8s 6s 18 20 mph 1018.7mb 60f 60f
2:50 5ft 8s 6s 16 18 mph 1018.8mb 60f 60f
1:50 6ft 8s 6s 18 20 mph 1018.7mb 60f 59f
12:50 6ft 8s 6s 16 18 mph 1018.9mb 60f 59f
11:50 6ft 8s 6s 16 18 mph 1019mb 59f 59f
10:50 5.5ft 7s 6s 13 18 mph 1018.9mb 59f 59f
9:50 6ft 8s 6s 11 13 mph 1018.9mb 59f 59f
8:50 5.5ft 8s 6s 9 11 mph 1018.8mb 58f 59f
7:50 5ft 8s 5s 9 11 mph 1018.4mb 58f 59f
6:50 6.5ft 8s 6s 9 11 mph 1018mb 58f 59f
5:50 7ft 8s 6s 9 11 mph 1017.6mb 58f 59f
4:50 6ft 8s 6s 11 13 mph 1017.3mb 58f 59f
3:50 6ft 8s 6s 11 13 mph 1017.1mb 58f 59f
2:50 7ft 8s 6s 13 16 mph 1016.7mb 58f 59f
1:50 6.5ft 8s 6s 13 16 mph 1016.6mb 58f 59f
12:50 6ft 8s 6s 13 16 mph 1016.9mb 58f 59f
Seg 07/24 11:50 6.5ft 9s 6s 13 16 mph 1017mb 58f 59f
10:50 6ft 8s 6s 18 20 mph 1016.6mb 58f 59f
9:50 6ft 8s 6s 16 20 mph 1016.3mb 58f 59f
8:50 6ft 8s 6s 18 22 mph 1015.8mb 59f 59f
7:50 6ft 8s 6s 20 22 mph 1015.7mb 59f 60f
6:50 6ft 9s 6s 20 25 mph 1015.6mb 59f 60f
5:50 6.5ft 8s 6s 20 25 mph 1015.8mb 59f 60f
4:50 7ft 8s 6s 20 25 mph 1016mb 59f 60f
3:50 6ft 9s 6s 18 22 mph 1016.4mb 60f 60f
2:50 7.5ft 9s 7s 16 20 mph 1016.7mb 60f 59f
1:50 8ft 8s 7s 16 18 mph 1017.1mb 59f 59f
12:50 6.5ft 9s 6s 16 18 mph 1017.4mb 58f 58f
11:50 7ft 9s 7s 13 16 mph 1017.5mb 57f 58f
10:50 6.5ft 9s 6s 13 16 mph 1017.7mb 57f 58f
9:50 6.5ft 8s 6s 16 18 mph 1017.9mb 57f 58f
8:50 7ft 8s 6s 13 16 mph 1018mb 57f 58f
7:50 7ft 8s 6s 13 18 mph 1018.1mb 58f 58f
6:50 6.5ft 8s 6s 16 20 mph 1017.7mb 60f 58f
5:50 6.5ft 8s 6s 13 18 mph 1017.5mb 60f 58f
4:50 7ft 8s 6s 16 18 mph 1017.3mb 60f 58f
3:50 6ft 8s 6s 13 16 mph 1017.3mb 60f 59f
2:50 8ft 8s 7s 13 18 mph 1017.5mb 60f 59f
1:50 6.5ft 8s 6s 16 18 mph 1017.6mb 60f 59f
12:50 7ft 8s 6s 13 18 mph 1017.6mb 60f 59f
Dom 07/23 11:50 7ft 8s 6s 16 20 mph 1017.7mb 60f 59f
10:50 6.5ft 8s 6s 18 20 mph 1017.9mb 60f 59f
9:50 7ft 8s 6s 20 22 mph 1018.2mb 60f 60f
8:50 6ft 7s 5s 20 25 mph 1018.2mb 60f 60f
7:50 6ft 8s 5s 25 27 mph 1018.1mb 60f 60f
6:50 6ft 8s 5s 25 29 mph 1018.2mb 59f 60f
5:50 5.5ft 6s 5s 22 27 mph 1018.7mb 59f 60f
4:50 6ft 7s 5s 20 25 mph 1019.3mb 59f 60f
3:50 6ft 7s 5s 20 25 mph 1019.5mb 58f 60f
2:50 6ft 8s 5s 20 22 mph 1020mb 59f 59f
1:50 5.5ft 7s 5s 18 22 mph 1020.1mb 59f 59f
12:50 5.5ft 6s 5s 16 20 mph 1020.4mb 60f 59f
11:50 6ft 6s 5s 18 22 mph 1020.6mb 60f 59f
10:50 6ft 6s 5s 18 22 mph 1020.9mb 60f 59f
9:50 6ft 6s 5s 22 27 mph 1020.7mb 60f 59f
8:50 5.5ft 6s 5s 20 25 mph 1020.9mb 59f 59f
7:50 5.5ft 5s 5s 22 27 mph 1020.7mb 59f 59f
6:50 5ft 5s 5s 22 25 mph 1020.2mb 58f 59f
5:50 5ft 7s 5s 20 27 mph 1020mb 58f 60f
4:50 4.5ft 5s 5s 20 25 mph 1019.8mb 59f 60f
3:50 4.5ft 8s 5s 20 25 mph 1019.9mb 59f 60f
2:50 4.5ft 8s 5s 20 27 mph 1019.8mb 60f 60f
1:50 4ft 7s 5s 18 22 mph 1019.8mb 60f 61f
12:50 3.5ft 7s 5s 20 25 mph 1020.2mb 60f 61f
Sáb 07/22 11:50 3.5ft 8s 5s 18 22 mph 1020.3mb 59f 61f
10:50 3.5ft 8s 5s 16 18 mph 1020.4mb 59f 61f
9:50 3.5ft 8s 5s 16 20 mph 1020.7mb 60f 62f